createdAt,value
2024-03-01T00:00:33.606Z,121.37
2024-03-01T00:01:33.617Z,123.54
2024-03-01T00:02:33.582Z,122.16
2024-03-01T00:03:33.591Z,123.83
2024-03-01T00:04:33.663Z,121.86
2024-03-01T00:05:33.604Z,120.51
2024-03-01T00:06:33.634Z,123.23
2024-03-01T00:07:33.671Z,123.40
2024-03-01T00:08:33.638Z,123.76
2024-03-01T00:09:33.784Z,123.28
2024-03-01T00:10:33.761Z,121.48
2024-03-01T00:11:33.694Z,122.94
2024-03-01T00:12:33.704Z,123.34
2024-03-01T00:13:33.780Z,121.75
2024-03-01T00:14:33.699Z,122.60
2024-03-01T00:15:33.725Z,123.14
2024-03-01T00:16:33.755Z,122.95
2024-03-01T00:17:33.735Z,120.53
2024-03-01T00:18:33.833Z,121.73
2024-03-01T00:19:33.802Z,119.77
2024-03-01T00:20:33.822Z,118.34
2024-03-01T00:21:33.779Z,119.05
2024-03-01T00:22:33.861Z,118.56
2024-03-01T00:23:33.781Z,118.89
2024-03-01T00:24:33.803Z,119.85
2024-03-01T00:25:33.872Z,118.00
2024-03-01T00:26:33.819Z,115.49
2024-03-01T00:27:33.822Z,116.40
2024-03-01T00:28:33.852Z,115.41
2024-03-01T00:29:33.858Z,114.39
2024-03-01T00:30:33.864Z,115.71
2024-03-01T00:31:33.921Z,113.26
2024-03-01T00:32:33.964Z,112.19
2024-03-01T00:33:33.895Z,112.23
2024-03-01T00:34:34.086Z,112.31
2024-03-01T00:35:33.934Z,110.97
2024-03-01T00:36:33.946Z,110.75
2024-03-01T00:37:33.979Z,111.79
2024-03-01T00:38:33.962Z,112.35
2024-03-01T00:39:34.000Z,112.15
2024-03-01T00:40:34.044Z,112.52
2024-03-01T00:41:34.014Z,112.12
2024-03-01T00:42:34.038Z,113.01
2024-03-01T00:43:34.107Z,110.54
2024-03-01T00:44:34.067Z,112.50
2024-03-01T00:45:34.067Z,110.94
2024-03-01T00:46:34.104Z,110.87
2024-03-01T00:47:34.093Z,111.75
2024-03-01T00:48:34.098Z,111.73
2024-03-01T00:49:34.123Z,111.21
2024-03-01T00:50:34.218Z,110.43
2024-03-01T00:51:34.122Z,110.16
2024-03-01T00:52:34.184Z,109.42
2024-03-01T00:53:34.170Z,109.45
2024-03-01T00:54:34.157Z,110.22
2024-03-01T00:55:34.173Z,110.15
2024-03-01T00:56:34.183Z,109.01
2024-03-01T00:57:34.214Z,111.83
2024-03-01T00:58:34.236Z,109.98
2024-03-01T00:59:34.220Z,109.96
2024-03-01T01:00:34.226Z,107.45
2024-03-01T01:01:34.337Z,108.97
2024-03-01T01:02:40.419Z,107.34
2024-03-01T01:03:35.250Z,107.40
2024-03-01T01:04:34.302Z,107.39
2024-03-01T01:05:34.249Z,107.09
2024-03-01T01:06:34.350Z,107.59
2024-03-01T01:07:34.304Z,106.02
2024-03-01T01:08:34.273Z,105.71
2024-03-01T01:09:34.252Z,102.78
2024-03-01T01:10:34.358Z,102.48
2024-03-01T01:11:34.269Z,102.65
2024-03-01T01:12:34.329Z,102.96
2024-03-01T01:13:35.012Z,101.77
2024-03-01T01:14:34.271Z,103.27
2024-03-01T01:15:34.264Z,101.43
2024-03-01T01:16:34.297Z,101.21
2024-03-01T01:17:34.343Z,99.54
2024-03-01T01:18:34.268Z,100.56
2024-03-01T01:19:34.315Z,99.25
2024-03-01T01:20:34.270Z,95.86
2024-03-01T01:21:34.273Z,99.22
2024-03-01T01:22:34.431Z,98.28
2024-03-01T01:23:34.305Z,97.65
2024-03-01T01:24:34.266Z,96.61
2024-03-01T01:25:34.336Z,97.88
2024-03-01T01:26:34.263Z,95.38
2024-03-01T01:27:34.279Z,94.81
2024-03-01T01:28:34.325Z,95.08
2024-03-01T01:29:34.300Z,95.01
2024-03-01T01:30:34.303Z,95.64
2024-03-01T01:31:34.337Z,95.42
2024-03-01T01:32:34.366Z,94.25
2024-03-01T01:33:34.346Z,93.99
2024-03-01T01:34:34.378Z,96.53
2024-03-01T01:35:34.453Z,94.45
2024-03-01T01:36:34.369Z,93.51
2024-03-01T01:37:34.434Z,94.98
2024-03-01T01:38:34.396Z,96.00
2024-03-01T01:39:34.431Z,96.07
2024-03-01T01:40:34.543Z,95.62
2024-03-01T01:41:34.438Z,95.96
2024-03-01T01:42:34.462Z,95.69
2024-03-01T01:43:34.542Z,94.57
2024-03-01T01:44:34.486Z,94.18
2024-03-01T01:45:34.484Z,94.47
2024-03-01T01:46:34.511Z,95.99
2024-03-01T01:47:34.531Z,94.92
2024-03-01T01:48:34.531Z,93.82
2024-03-01T01:49:34.581Z,94.21
2024-03-01T01:50:34.549Z,91.63
2024-03-01T01:51:34.568Z,93.76
2024-03-01T01:52:34.648Z,92.00
2024-03-01T01:53:34.615Z,92.66
2024-03-01T01:54:34.638Z,93.92
2024-03-01T01:55:34.682Z,94.37
2024-03-01T01:56:34.615Z,95.55
2024-03-01T01:57:34.649Z,93.93
2024-03-01T01:58:34.729Z,94.80
2024-03-01T01:59:34.655Z,95.14
2024-03-01T02:00:34.692Z,91.24
2024-03-01T02:01:34.775Z,91.84
2024-03-01T02:02:34.711Z,92.36
2024-03-01T02:03:34.719Z,91.67
2024-03-01T02:04:34.740Z,91.60
2024-03-01T02:05:34.741Z,91.14
2024-03-01T02:06:34.753Z,90.08
2024-03-01T02:07:34.811Z,89.21
2024-03-01T02:08:34.758Z,90.22
2024-03-01T02:09:34.792Z,89.88
2024-03-01T02:10:34.977Z,88.94
2024-03-01T02:11:34.992Z,91.09
2024-03-01T02:12:34.816Z,89.72
2024-03-01T02:13:34.946Z,85.33
2024-03-01T02:14:34.841Z,86.64
2024-03-01T02:15:34.861Z,86.78
2024-03-01T02:16:35.075Z,86.89
2024-03-01T02:17:34.891Z,85.01
2024-03-01T02:18:34.912Z,87.75
2024-03-01T02:19:34.943Z,86.03
2024-03-01T02:20:34.916Z,84.60
2024-03-01T02:21:34.933Z,85.77
2024-03-01T02:22:35.015Z,85.24
2024-03-01T02:23:34.983Z,87.35
2024-03-01T02:24:34.982Z,84.43
2024-03-01T02:25:35.048Z,84.00
2024-03-01T02:26:35.122Z,82.94
2024-03-01T02:27:35.059Z,84.53
2024-03-01T02:28:35.074Z,84.03
2024-03-01T02:29:35.084Z,87.29
2024-03-01T02:30:35.097Z,82.19
2024-03-01T02:31:35.127Z,85.15
2024-03-01T02:32:35.167Z,86.10
2024-03-01T02:33:35.141Z,86.60
2024-03-01T02:34:35.220Z,85.81
2024-03-01T02:35:35.194Z,84.63
2024-03-01T02:36:35.202Z,84.75
2024-03-01T02:37:35.217Z,83.97
2024-03-01T02:38:35.238Z,83.30
2024-03-01T02:39:35.232Z,85.06
2024-03-01T02:40:35.331Z,84.20
2024-03-01T02:41:35.321Z,83.09
2024-03-01T02:42:35.436Z,84.80
2024-03-01T02:43:35.336Z,83.88
2024-03-01T02:44:35.317Z,82.20
2024-03-01T02:45:35.357Z,83.22
2024-03-01T02:46:35.391Z,86.62
2024-03-01T02:47:35.414Z,87.11
2024-03-01T02:48:35.407Z,84.36
2024-03-01T02:49:35.449Z,83.37
2024-03-01T02:50:35.460Z,83.37
2024-03-01T02:51:35.492Z,83.36
2024-03-01T02:52:35.472Z,82.27
2024-03-01T02:53:35.478Z,84.54
2024-03-01T02:54:35.503Z,83.08
2024-03-01T02:55:35.603Z,84.05
2024-03-01T02:56:35.517Z,81.84
2024-03-01T02:57:35.551Z,83.31
2024-03-01T02:58:35.676Z,85.40
2024-03-01T02:59:35.593Z,86.87
2024-03-01T03:00:35.629Z,86.56
2024-03-01T03:01:35.705Z,86.97
2024-03-01T03:02:35.615Z,87.24
2024-03-01T03:03:35.626Z,86.18
2024-03-01T03:04:35.678Z,86.72
2024-03-01T03:05:35.667Z,89.03
2024-03-01T03:06:35.689Z,86.88
2024-03-01T03:07:35.720Z,84.76
2024-03-01T03:08:35.747Z,90.07
2024-03-01T03:09:35.738Z,86.90
2024-03-01T03:10:35.813Z,86.79
2024-03-01T03:11:35.823Z,86.06
2024-03-01T03:12:35.801Z,87.46
2024-03-01T03:13:35.872Z,85.08
2024-03-01T03:14:35.954Z,86.73
2024-03-01T03:15:35.828Z,88.34
2024-03-01T03:16:35.901Z,83.86
2024-03-01T03:17:35.908Z,85.94
2024-03-01T03:18:35.892Z,85.06
2024-03-01T03:19:36.278Z,83.71
2024-03-01T03:20:35.922Z,85.94
2024-03-01T03:21:35.988Z,85.31
2024-03-01T03:22:36.056Z,86.03
2024-03-01T03:23:36.007Z,87.81
2024-03-01T03:24:36.008Z,88.32
2024-03-01T03:25:36.101Z,87.16
2024-03-01T03:26:36.039Z,86.18
2024-03-01T03:27:36.064Z,85.05
2024-03-01T03:28:36.162Z,84.51
2024-03-01T03:29:36.125Z,84.05
2024-03-01T03:30:36.097Z,85.87
2024-03-01T03:31:36.157Z,85.21
2024-03-01T03:32:36.170Z,87.07
2024-03-01T03:33:36.150Z,86.32
2024-03-01T03:34:36.272Z,85.18
2024-03-01T03:35:36.203Z,82.97
2024-03-01T03:36:36.208Z,85.31
2024-03-01T03:37:36.279Z,85.06
2024-03-01T03:38:36.231Z,86.24
2024-03-01T03:39:36.251Z,87.78
2024-03-01T03:40:36.307Z,86.43
2024-03-01T03:41:36.282Z,86.90
2024-03-01T03:42:36.317Z,88.48
2024-03-01T03:43:36.384Z,87.10
2024-03-01T03:44:36.339Z,85.89
2024-03-01T03:45:36.363Z,83.45
2024-03-01T03:46:36.508Z,85.17
2024-03-01T03:47:36.427Z,85.00
2024-03-01T03:48:36.411Z,83.60
2024-03-01T03:49:36.472Z,82.57
2024-03-01T03:50:36.484Z,84.55
2024-03-01T03:51:36.466Z,82.36
2024-03-01T03:52:36.546Z,84.27
2024-03-01T03:53:36.496Z,81.21
2024-03-01T03:54:36.559Z,82.03
2024-03-01T03:55:36.741Z,80.26
2024-03-01T03:56:36.547Z,81.94
2024-03-01T03:57:36.599Z,80.69
2024-03-01T03:58:36.616Z,81.48
2024-03-01T03:59:36.632Z,81.12
2024-03-01T04:00:36.613Z,81.83
2024-03-01T04:01:36.671Z,79.66
2024-03-01T04:02:36.751Z,83.15
2024-03-01T04:03:36.657Z,83.69
2024-03-01T04:04:36.742Z,83.24
2024-03-01T04:05:36.703Z,84.25
2024-03-01T04:06:36.720Z,82.90
2024-03-01T04:07:36.853Z,80.85
2024-03-01T04:08:36.745Z,82.89
2024-03-01T04:09:36.773Z,83.93
2024-03-01T04:10:36.863Z,83.24
2024-03-01T04:11:36.856Z,83.32
2024-03-01T04:12:36.825Z,83.97
2024-03-01T04:13:37.005Z,84.14
2024-03-01T04:14:36.859Z,86.05
2024-03-01T04:15:36.877Z,84.84
2024-03-01T04:16:36.982Z,84.04
2024-03-01T04:17:36.970Z,84.38
2024-03-01T04:18:44.691Z,50.00
2024-03-01T04:19:44.771Z,50.00
2024-03-01T04:20:44.759Z,50.00
2024-03-01T04:21:44.749Z,50.00
2024-03-01T04:22:44.822Z,50.00
2024-03-01T04:23:44.854Z,52.12
2024-03-01T04:24:44.842Z,52.28
2024-03-01T04:25:44.824Z,49.82
2024-03-01T04:26:44.853Z,50.00
2024-03-01T04:27:44.839Z,51.15
2024-03-01T04:28:44.831Z,50.76
2024-03-01T04:29:44.836Z,50.15
2024-03-01T04:30:44.841Z,51.58
2024-03-01T04:31:52.043Z,50.00
2024-03-01T04:32:52.108Z,50.00
2024-03-01T04:33:52.078Z,50.00
2024-03-01T04:34:52.016Z,50.00
2024-03-01T04:35:52.033Z,50.00
2024-03-01T04:36:52.060Z,52.78
2024-03-01T04:37:52.032Z,50.62
2024-03-01T04:38:52.020Z,50.84
2024-03-01T04:39:52.040Z,51.96
2024-03-01T04:40:52.062Z,51.31
2024-03-01T04:41:52.022Z,50.00
2024-03-01T04:42:52.058Z,50.49
2024-03-01T04:43:52.015Z,52.68
2024-03-01T04:44:52.013Z,53.33
2024-03-01T04:45:52.023Z,52.23
2024-03-01T04:46:52.033Z,53.48
2024-03-01T04:47:52.074Z,53.89
2024-03-01T04:48:55.102Z,53.85
2024-03-01T04:49:52.037Z,53.86
2024-03-01T04:50:52.023Z,52.97
2024-03-01T04:51:52.114Z,52.32
2024-03-01T04:52:52.044Z,54.22
2024-03-01T04:53:52.029Z,52.82
2024-03-01T04:54:52.057Z,55.05
2024-03-01T04:55:52.039Z,54.07
2024-03-01T04:56:52.042Z,52.40
2024-03-01T04:57:52.069Z,52.84
2024-03-01T04:58:52.053Z,51.09
2024-03-01T04:59:52.063Z,52.20
2024-03-01T05:00:52.148Z,51.96
2024-03-01T05:01:52.096Z,51.96
2024-03-01T05:02:52.070Z,54.22
2024-03-01T05:03:52.096Z,54.02
2024-03-01T05:04:52.097Z,54.88
2024-03-01T05:05:52.039Z,55.23
2024-03-01T05:06:52.055Z,55.93
2024-03-01T05:07:52.050Z,60.26
2024-03-01T05:08:52.036Z,58.95
2024-03-01T05:09:52.121Z,60.06
2024-03-01T05:10:52.162Z,60.90
2024-03-01T05:11:52.078Z,63.03
2024-03-01T05:12:52.070Z,62.01
2024-03-01T05:13:52.054Z,62.80
2024-03-01T05:14:52.045Z,64.55
2024-03-01T05:15:52.113Z,65.15
2024-03-01T05:16:52.053Z,66.99
2024-03-01T05:17:52.097Z,66.36
2024-03-01T05:18:52.070Z,66.60
2024-03-01T05:19:52.047Z,68.26
2024-03-01T05:20:52.045Z,66.58
2024-03-01T05:21:52.165Z,68.55
2024-03-01T05:22:52.062Z,66.79
2024-03-01T05:23:52.068Z,70.24
2024-03-01T05:24:52.090Z,67.10
2024-03-01T05:25:52.065Z,68.12
2024-03-01T05:26:52.072Z,69.97
2024-03-01T05:27:52.194Z,67.92
2024-03-01T05:28:52.124Z,69.35
2024-03-01T05:29:52.064Z,68.42
2024-03-01T05:30:53.187Z,70.01
2024-03-01T05:31:52.133Z,71.57
2024-03-01T05:32:52.093Z,69.68
2024-03-01T05:33:52.304Z,69.64
2024-03-01T05:34:52.050Z,70.45
2024-03-01T05:35:52.065Z,71.41
2024-03-01T05:36:52.104Z,73.61
2024-03-01T05:37:52.149Z,71.30
2024-03-01T05:38:52.074Z,69.21
2024-03-01T05:39:52.090Z,68.86
2024-03-01T05:40:53.034Z,70.37
2024-03-01T05:41:52.083Z,70.01
2024-03-01T05:42:52.148Z,69.77
2024-03-01T05:43:52.066Z,70.46
2024-03-01T05:44:52.082Z,68.61
2024-03-01T05:45:52.101Z,68.86
2024-03-01T05:46:52.063Z,69.64
2024-03-01T05:47:52.115Z,66.41
2024-03-01T05:48:52.116Z,67.01
2024-03-01T05:49:52.064Z,67.15
2024-03-01T05:50:52.086Z,65.77
2024-03-01T05:51:52.107Z,66.08
2024-03-01T05:52:52.085Z,65.36
2024-03-01T05:53:52.172Z,65.83
2024-03-01T05:54:52.085Z,65.20
2024-03-01T05:55:52.092Z,64.51
2024-03-01T05:56:52.086Z,62.84
2024-03-01T05:57:52.095Z,63.04
2024-03-01T05:58:52.075Z,61.60
2024-03-01T05:59:52.087Z,59.95
2024-03-01T06:00:52.124Z,60.28
2024-03-01T06:01:52.164Z,61.58
2024-03-01T06:02:54.655Z,59.67
2024-03-01T06:03:52.135Z,59.77
2024-03-01T06:04:52.098Z,59.64
2024-03-01T06:05:52.101Z,58.92
2024-03-01T06:06:52.173Z,57.98
2024-03-01T06:07:52.092Z,58.43
2024-03-01T06:08:52.106Z,58.34
2024-03-01T06:09:52.204Z,59.75
2024-03-01T06:10:52.135Z,58.69
2024-03-01T06:11:52.131Z,58.37
2024-03-01T06:12:52.234Z,56.83
2024-03-01T06:13:52.132Z,58.07
2024-03-01T06:14:52.123Z,57.67
2024-03-01T06:15:52.131Z,59.17
2024-03-01T06:16:52.114Z,59.19
2024-03-01T06:17:52.160Z,59.47
2024-03-01T06:18:52.140Z,59.87
2024-03-01T06:19:52.132Z,60.63
2024-03-01T06:20:52.147Z,61.41
2024-03-01T06:21:52.354Z,60.43
2024-03-01T06:22:52.138Z,61.97
2024-03-01T06:23:52.136Z,61.11
2024-03-01T06:24:52.226Z,64.11
2024-03-01T06:25:52.149Z,59.36
2024-03-01T06:26:52.166Z,62.98
2024-03-01T06:27:52.217Z,62.28
2024-03-01T06:28:52.183Z,63.62
2024-03-01T06:29:52.145Z,60.87
2024-03-01T06:30:52.179Z,60.03
2024-03-01T06:31:52.142Z,63.01
2024-03-01T06:32:52.222Z,58.60
2024-03-01T06:33:52.174Z,58.02
2024-03-01T06:34:52.159Z,58.29
2024-03-01T06:35:52.161Z,60.66
2024-03-01T06:36:52.176Z,64.66
2024-03-01T06:37:52.193Z,69.24
2024-03-01T06:38:52.158Z,71.71
2024-03-01T06:39:52.253Z,78.18
2024-03-01T06:40:52.157Z,84.32
2024-03-01T06:41:52.150Z,97.72
2024-03-01T06:42:53.096Z,109.52
2024-03-01T06:43:52.153Z,115.74
2024-03-01T06:44:52.164Z,123.37
2024-03-01T06:45:52.191Z,131.12
2024-03-01T06:46:52.152Z,139.95
2024-03-01T06:47:52.256Z,149.00
2024-03-01T06:48:52.199Z,153.48
2024-03-01T06:49:52.199Z,160.77
2024-03-01T06:50:52.178Z,162.29
2024-03-01T06:51:52.241Z,164.93
2024-03-01T06:52:52.166Z,170.16
2024-03-01T06:53:52.185Z,168.09
2024-03-01T06:54:52.192Z,172.01
2024-03-01T06:55:52.202Z,172.01
2024-03-01T06:56:52.255Z,175.46
2024-03-01T06:57:52.324Z,175.30
2024-03-01T06:58:52.160Z,174.92
2024-03-01T06:59:52.160Z,178.31
2024-03-01T07:00:52.235Z,177.36
2024-03-01T07:01:52.255Z,179.08
2024-03-01T07:02:52.213Z,177.04
2024-03-01T07:03:52.248Z,180.23
2024-03-01T07:04:52.190Z,179.46
2024-03-01T07:05:52.178Z,178.96
2024-03-01T07:06:52.250Z,178.50
2024-03-01T07:07:52.219Z,177.91
2024-03-01T07:08:52.190Z,178.33
2024-03-01T07:09:52.320Z,177.23
2024-03-01T07:10:52.362Z,176.84
2024-03-01T07:11:52.236Z,178.44
2024-03-01T07:12:52.900Z,176.66
2024-03-01T07:13:52.311Z,176.14
2024-03-01T07:14:52.255Z,176.78
2024-03-01T07:15:52.324Z,174.04
2024-03-01T07:16:52.307Z,174.50
2024-03-01T07:17:52.345Z,173.59
2024-03-01T07:18:52.361Z,173.24
2024-03-01T07:19:52.309Z,170.60
2024-03-01T07:20:52.325Z,166.26
2024-03-01T07:21:52.424Z,165.03
2024-03-01T07:22:52.368Z,164.55
2024-03-01T07:23:52.374Z,164.18
2024-03-01T07:24:52.401Z,163.05
2024-03-01T07:25:52.408Z,160.30
2024-03-01T07:26:52.413Z,160.08
2024-03-01T07:27:52.514Z,157.86
2024-03-01T07:28:52.731Z,157.25
2024-03-01T07:29:52.522Z,157.23
2024-03-01T07:30:52.484Z,154.74
2024-03-01T07:31:52.492Z,155.52
2024-03-01T07:32:52.582Z,153.73
2024-03-01T07:33:52.867Z,155.97
2024-03-01T07:34:52.596Z,162.37
2024-03-01T07:35:52.629Z,160.49
2024-03-01T07:36:52.735Z,159.96
2024-03-01T07:37:52.759Z,158.99
2024-03-01T07:38:52.809Z,159.60
2024-03-01T07:39:52.936Z,156.71
2024-03-01T07:40:52.912Z,159.75
2024-03-01T07:41:52.957Z,163.84
2024-03-01T07:42:53.009Z,169.95
2024-03-01T07:43:53.079Z,173.18
2024-03-01T07:44:53.057Z,174.45
2024-03-01T07:45:53.170Z,175.18
2024-03-01T07:46:53.146Z,178.87
2024-03-01T07:47:53.256Z,177.39
2024-03-01T07:48:53.751Z,180.20
2024-03-01T07:49:53.316Z,175.36
2024-03-01T07:50:53.365Z,175.09
2024-03-01T07:51:53.609Z,172.37
2024-03-01T07:52:53.745Z,172.72
2024-03-01T07:53:53.533Z,171.40
2024-03-01T07:54:53.600Z,167.32
2024-03-01T07:55:53.664Z,165.90
2024-03-01T07:56:53.696Z,163.09
2024-03-01T07:57:53.885Z,163.24
2024-03-01T07:58:53.887Z,158.68
2024-03-01T07:59:53.861Z,158.88
2024-03-01T08:00:53.958Z,156.07
2024-03-01T08:01:54.082Z,154.93
2024-03-01T08:02:54.034Z,155.69
2024-03-01T08:03:55.532Z,150.14
2024-03-01T08:04:54.081Z,149.46
2024-03-01T08:05:54.072Z,147.76
2024-03-01T08:06:54.089Z,147.18
2024-03-01T08:07:54.051Z,146.56
2024-03-01T08:08:54.053Z,145.66
2024-03-01T08:09:54.109Z,143.01
2024-03-01T08:10:54.072Z,143.65
2024-03-01T08:11:54.067Z,142.96
2024-03-01T08:12:54.095Z,143.13
2024-03-01T08:13:54.086Z,141.18
2024-03-01T08:14:54.061Z,141.96
2024-03-01T08:15:54.067Z,142.37
2024-03-01T08:16:54.070Z,139.30
2024-03-01T08:17:54.085Z,140.14
2024-03-01T08:18:54.068Z,139.22
2024-03-01T08:19:54.057Z,136.95
2024-03-01T08:20:54.089Z,136.32
2024-03-01T08:21:54.113Z,137.47
2024-03-01T08:22:54.070Z,136.89
2024-03-01T08:23:54.077Z,135.55
2024-03-01T08:24:54.182Z,132.70
2024-03-01T08:25:54.074Z,133.47
2024-03-01T08:26:54.067Z,131.68
2024-03-01T08:27:54.252Z,126.73
2024-03-01T08:28:54.080Z,123.73
2024-03-01T08:29:54.083Z,118.97
2024-03-01T08:30:54.304Z,121.68
2024-03-01T08:31:54.109Z,118.26
2024-03-01T08:32:54.258Z,119.16
2024-03-01T08:33:54.190Z,116.94
2024-03-01T08:34:54.087Z,115.93
2024-03-01T08:35:54.099Z,119.76
2024-03-01T08:36:54.419Z,117.61
2024-03-01T08:37:54.248Z,118.17
2024-03-01T08:38:54.084Z,120.35
2024-03-01T08:39:54.156Z,124.49
2024-03-01T08:40:54.283Z,122.76
2024-03-01T08:41:54.089Z,128.26
2024-03-01T08:42:54.111Z,129.90
2024-03-01T08:43:54.106Z,131.34
2024-03-01T08:44:54.104Z,133.75
2024-03-01T08:45:54.129Z,133.00
2024-03-01T08:46:54.112Z,137.84
2024-03-01T08:47:54.279Z,137.82
2024-03-01T08:48:54.140Z,139.32
2024-03-01T08:49:56.880Z,142.29
2024-03-01T08:50:54.125Z,144.45
2024-03-01T08:51:54.150Z,145.32
2024-03-01T08:52:54.107Z,150.49
2024-03-01T08:53:54.101Z,148.68
2024-03-01T08:54:54.192Z,151.50
2024-03-01T08:55:54.125Z,154.21
2024-03-01T08:56:54.145Z,156.28
2024-03-01T08:57:54.161Z,159.40
2024-03-01T08:58:54.171Z,159.32
2024-03-01T08:59:54.114Z,162.11
2024-03-01T09:00:54.276Z,164.08
2024-03-01T09:01:54.247Z,165.48
2024-03-01T09:02:54.134Z,168.48
2024-03-01T09:03:54.148Z,170.77
2024-03-01T09:04:54.184Z,170.78
2024-03-01T09:05:54.210Z,171.55
2024-03-01T09:06:54.202Z,175.55
2024-03-01T09:07:54.133Z,176.18
2024-03-01T09:08:54.114Z,176.77
2024-03-01T09:09:54.167Z,178.39
2024-03-01T09:10:54.235Z,178.21
2024-03-01T09:11:54.123Z,180.78
2024-03-01T09:12:54.125Z,181.31
2024-03-01T09:13:54.112Z,182.36
2024-03-01T09:14:54.133Z,181.90
2024-03-01T09:15:54.145Z,181.79
2024-03-01T09:16:54.109Z,182.85
2024-03-01T09:17:54.141Z,183.96
2024-03-01T09:18:54.154Z,186.59
2024-03-01T09:19:54.128Z,185.44
2024-03-01T09:20:54.123Z,184.96
2024-03-01T09:21:54.253Z,184.14
2024-03-01T09:22:54.118Z,184.38
2024-03-01T09:23:54.141Z,185.21
2024-03-01T09:24:54.134Z,186.53
2024-03-01T09:25:54.179Z,189.18
2024-03-01T09:26:54.229Z,189.84
2024-03-01T09:27:54.333Z,190.23
2024-03-01T09:28:54.336Z,190.29
2024-03-01T09:29:54.400Z,191.84
2024-03-01T09:30:54.581Z,191.71
2024-03-01T09:31:54.499Z,191.32
2024-03-01T09:32:54.639Z,191.08
2024-03-01T09:33:54.713Z,190.12
2024-03-01T09:34:54.653Z,192.96
2024-03-01T09:35:54.719Z,189.82
2024-03-01T09:36:54.817Z,190.67
2024-03-01T09:37:55.321Z,191.70
2024-03-01T09:38:54.862Z,191.97
2024-03-01T09:39:55.743Z,193.21
2024-03-01T09:40:54.934Z,193.47
2024-03-01T09:41:54.995Z,194.33
2024-03-01T09:42:55.271Z,195.46
2024-03-01T09:43:55.020Z,194.66
2024-03-01T09:44:55.077Z,194.72
2024-03-01T09:45:55.183Z,195.49
2024-03-01T09:46:55.187Z,196.16
2024-03-01T09:47:55.318Z,194.65
2024-03-01T09:48:55.868Z,194.88
2024-03-01T09:49:55.339Z,193.96
2024-03-01T09:50:55.395Z,193.50
2024-03-01T09:51:55.521Z,191.23
2024-03-01T09:52:55.521Z,189.88
2024-03-01T09:53:55.854Z,188.67
2024-03-01T09:54:55.689Z,185.61
2024-03-01T09:55:55.745Z,181.68
2024-03-01T09:56:55.815Z,179.55
2024-03-01T09:57:56.022Z,176.44
2024-03-01T09:58:55.912Z,174.38
2024-03-01T09:59:55.958Z,171.51
2024-03-01T10:00:56.134Z,171.11
2024-03-01T10:01:56.121Z,168.59
2024-03-01T10:02:56.269Z,166.00
2024-03-01T10:03:56.251Z,164.25
2024-03-01T10:04:56.447Z,163.83
2024-03-01T10:05:59.564Z,160.52
2024-03-01T10:06:57.388Z,160.55
2024-03-01T10:07:56.344Z,158.89
2024-03-01T10:08:56.352Z,158.29
2024-03-01T10:09:56.472Z,155.11
2024-03-01T10:10:56.404Z,153.81
2024-03-01T10:11:56.347Z,154.37
2024-03-01T10:12:56.450Z,153.91
2024-03-01T10:13:56.380Z,152.50
2024-03-01T10:14:56.453Z,151.80
2024-03-01T10:15:56.554Z,150.93
2024-03-01T10:16:56.576Z,151.19
2024-03-01T10:17:56.866Z,150.77
2024-03-01T10:18:56.740Z,150.76
2024-03-01T10:19:56.791Z,150.23
2024-03-01T10:20:56.850Z,149.97
2024-03-01T10:21:56.964Z,148.83
2024-03-01T10:22:57.005Z,148.46
2024-03-01T10:23:57.040Z,147.73
2024-03-01T10:24:57.205Z,147.46
2024-03-01T10:25:57.299Z,147.22
2024-03-01T10:26:57.249Z,142.98
2024-03-01T10:27:57.792Z,137.90
2024-03-01T10:28:57.368Z,135.71
2024-03-01T10:29:57.462Z,133.17
2024-03-01T10:30:57.567Z,134.05
2024-03-01T10:31:57.566Z,134.99
2024-03-01T10:32:57.814Z,137.84
2024-03-01T10:33:58.776Z,141.83
2024-03-01T10:34:57.736Z,145.77
2024-03-01T10:35:57.769Z,146.39
2024-03-01T10:36:57.836Z,148.45
2024-03-01T10:37:58.300Z,150.18
2024-03-01T10:38:57.886Z,153.76
2024-03-01T10:39:57.919Z,155.46
2024-03-01T10:40:57.981Z,157.64
2024-03-01T10:41:58.033Z,160.93
2024-03-01T10:42:58.304Z,167.32
2024-03-01T10:43:58.022Z,168.25
2024-03-01T10:44:58.051Z,168.66
2024-03-01T10:45:58.061Z,171.86
2024-03-01T10:46:58.060Z,176.20
2024-03-01T10:47:58.113Z,177.12
2024-03-01T10:48:58.097Z,179.86
2024-03-01T10:49:58.108Z,182.52
2024-03-01T10:50:58.212Z,186.88
2024-03-01T10:51:58.175Z,190.80
2024-03-01T10:52:58.172Z,195.99
2024-03-01T10:53:58.170Z,199.41
2024-03-01T10:54:58.228Z,199.13
2024-03-01T10:55:58.237Z,199.92
2024-03-01T10:56:58.305Z,198.78
2024-03-01T10:57:58.424Z,199.45
2024-03-01T10:58:58.313Z,199.39
2024-03-01T10:59:58.360Z,200.00
2024-03-01T11:00:58.576Z,199.73
2024-03-01T11:01:58.553Z,199.52
2024-03-01T11:02:58.473Z,199.74
2024-03-01T11:03:58.470Z,200.00
2024-03-01T11:04:58.609Z,198.29
2024-03-01T11:05:58.571Z,199.53
2024-03-01T11:06:58.630Z,199.59
2024-03-01T11:07:58.813Z,199.09
2024-03-01T11:08:58.647Z,200.08
2024-03-01T11:09:58.786Z,199.52
2024-03-01T11:10:58.843Z,197.75
2024-03-01T11:11:58.725Z,198.18
2024-03-01T11:12:58.791Z,199.24
2024-03-01T11:13:58.827Z,196.52
2024-03-01T11:14:58.822Z,198.05
2024-03-01T11:15:58.879Z,198.49
2024-03-01T11:16:58.858Z,200.00
2024-03-01T11:17:58.977Z,199.30
2024-03-01T11:18:58.879Z,198.73
2024-03-01T11:19:58.916Z,199.48
2024-03-01T11:20:58.928Z,197.40
2024-03-01T11:21:58.930Z,197.40
2024-03-01T11:22:59.312Z,197.85
2024-03-01T11:23:59.058Z,198.85
2024-03-01T11:24:59.081Z,199.28
2024-03-01T11:25:59.071Z,199.88
2024-03-01T11:26:59.066Z,200.00
2024-03-01T11:27:59.378Z,199.64
2024-03-01T11:28:59.116Z,199.52
2024-03-01T11:29:59.131Z,198.91
2024-03-01T11:30:59.196Z,200.00
2024-03-01T11:31:59.179Z,200.00
2024-03-01T11:32:59.350Z,198.82
2024-03-01T11:33:59.247Z,199.30
2024-03-01T11:34:59.301Z,200.00
2024-03-01T11:35:59.308Z,198.00
2024-03-01T11:36:59.354Z,197.52
2024-03-01T11:37:59.819Z,197.15
2024-03-01T11:38:59.344Z,194.05
2024-03-01T11:39:59.372Z,196.00
2024-03-01T11:40:59.367Z,198.03
2024-03-01T11:41:59.371Z,193.20
2024-03-01T11:42:59.465Z,195.81
2024-03-01T11:43:59.457Z,193.22
2024-03-01T11:44:59.461Z,193.88
2024-03-01T11:45:59.524Z,190.48
2024-03-01T11:46:59.535Z,191.47
2024-03-01T11:47:59.599Z,192.88
2024-03-01T11:48:59.634Z,189.03
2024-03-01T11:49:59.626Z,187.57
2024-03-01T11:50:59.681Z,193.46
2024-03-01T11:51:59.765Z,189.04
2024-03-01T11:52:59.782Z,193.59
2024-03-01T11:53:59.769Z,194.28
2024-03-01T11:54:59.818Z,190.94
2024-03-01T11:55:59.830Z,190.16
2024-03-01T11:56:59.881Z,187.17
2024-03-01T11:57:59.924Z,187.59
2024-03-01T11:58:59.896Z,188.38
2024-03-01T11:59:59.959Z,187.99
2024-03-01T12:01:00.094Z,187.12
2024-03-01T12:02:00.183Z,185.16
2024-03-01T12:03:00.123Z,183.30
2024-03-01T12:04:00.286Z,183.46
2024-03-01T12:05:03.614Z,185.32
2024-03-01T12:06:00.225Z,185.37
2024-03-01T12:07:00.246Z,179.80
2024-03-01T12:08:01.289Z,181.14
2024-03-01T12:09:00.259Z,186.99
2024-03-01T12:10:00.320Z,188.51
2024-03-01T12:11:00.374Z,190.10
2024-03-01T12:12:00.244Z,189.54
2024-03-01T12:13:00.372Z,180.23
2024-03-01T12:14:00.564Z,181.16
2024-03-01T12:15:00.304Z,176.50
2024-03-01T12:16:00.376Z,175.50
2024-03-01T12:17:00.245Z,170.89
2024-03-01T12:18:00.360Z,170.65
2024-03-01T12:19:00.331Z,169.22
2024-03-01T12:20:00.455Z,167.68
2024-03-01T12:21:00.249Z,165.91
2024-03-01T12:22:00.584Z,163.11
2024-03-01T12:23:00.303Z,162.25
2024-03-01T12:24:00.240Z,159.40
2024-03-01T12:25:00.365Z,156.87
2024-03-01T12:26:00.257Z,156.28
2024-03-01T12:27:00.251Z,154.39
2024-03-01T12:28:00.301Z,153.64
2024-03-01T12:29:00.378Z,150.86
2024-03-01T12:30:00.393Z,149.60
2024-03-01T12:31:00.349Z,148.38
2024-03-01T12:32:00.324Z,147.24
2024-03-01T12:33:00.451Z,145.87
2024-03-01T12:34:01.815Z,145.75
2024-03-01T12:35:00.419Z,148.48
2024-03-01T12:36:00.378Z,148.25
2024-03-01T12:37:00.409Z,147.75
2024-03-01T12:38:00.392Z,144.18
2024-03-01T12:39:00.397Z,133.62